Offutt, Kentucky
Current Conditions -  °F | °C
As of 4:35 PM on Wednesday 26 Nov 2014 (Local Time) from KSJS Reporting Station
Broken Clouds Broken Clouds  
Wind Chill: 46°   Ceiling: 4500
Heat Index: 46°   Visibility: 10mi
Dew Point: 32°   Wind: 0mph
Humidity: 58%   Direction: NA
Pressure: 29.99"   Gusts: NA
Location:  37.7517°N, 82.9074°W
Report Text: KSJS 262135Z AUTO 00000KT 10SM BKN045 BKN050 08/00 A2999 RMK AO2 T00771001
Loading
Personal Weather Stations






























Interactive Weather Map New forecast layout! Learn more

10-Day Weather Forecast

Advertisements
Track Severe Weather on mobile